NCAR-RAP Real-Time Weather Data

Output produced by METARs form (10 April 2020  06:23 UTC)
found at http://weather.rap.ucar.edu/surface/
 
KBRD 100553Z AUTO 30009KT 10SM FEW032 M02/M08 A3007 RMK AO2 SLP199 T10171078 10028 21017 400501017 53005
KBRD 100453Z AUTO 31009KT 10SM CLR M01/M08 A3006 RMK AO2 SLP196 T10111078
KBRD 100353Z AUTO 31008KT 10SM CLR M01/M08 A3006 RMK AO2 SLP196 T10061078
KBRD 100253Z AUTO 31008KT 10SM CLR M01/M08 A3006 RMK AO2 SLP195 T10061078 51011
KBRD 100153Z AUTO 31012G18KT 10SM CLR 01/M07 A3005 RMK AO2 SLP193 T00061072
KBRD 100053Z AUTO 30011G20KT 10SM BKN037 02/M07 A3003 RMK AO2 PK WND 32026/0002 SLP184 T00171072
KBRD 092353Z AUTO 33015G23KT 10SM BKN041 03/M07 A3002 RMK AO2 PK WND 32027/2327 SLP182 T00281072 10050 20022 53015
KBRD 092253Z AUTO 31014G25KT 10SM BKN046 04/M08 A3000 RMK AO2 PK WND 34029/2203 SLP173 T00391078
KBRD 092153Z AUTO 31012G27KT 10SM BKN050 04/M09 A2998 RMK AO2 PK WND 32027/2147 SLP168 T00391089
KBRD 092053Z AUTO 34014G24KT 10SM BKN047 BKN055 04/M08 A2998 RMK AO2 SLP165 T00391083 51010
KBRD 091953Z AUTO 32018G26KT 10SM SCT038 BKN047 BKN055 03/M07 A2997 RMK AO2 PK WND 33029/1911 SLP165 T00331072
KBRD 091853Z AUTO 34017G25KT 9SM BKN050 OVC060 02/M09 A2996 RMK AO2 PK WND 32032/1838 SLP160 T00221094
KBRD 091753Z AUTO 35017G29KT 10SM FEW035 SCT044 SCT055 03/M08 A2995 RMK AO2 PK WND 34031/1740 SNE26 SLP154 P0000 60000 T00281078 10028 21011 51025
KBRD 091721Z AUTO 32011G23KT 3SM -SN FEW028 BKN036 BKN046 00/M06 A2994 RMK AO2 PK WND 36030/1658 P0000 T00001056
KBRD 091712Z AUTO 35014G22KT 2SM -SN FEW027 BKN032 OVC044 00/M06 A2994 RMK AO2 PK WND 36030/1658 P0000 T00001061
KBRD 091702Z AUTO 35017G30KT 1 1/4SM -SN FEW025 BKN035 OVC060 00/M06 A2993 RMK AO2 PK WND 36030/1658 P0000 T00001061
KBRD 091653Z AUTO 34017G29KT 2 1/2SM -SN FEW025 BKN035 OVC055 01/M06 A2993 RMK AO2 PK WND 35033/1626 SNB52 SLP150 P0000 T00061061
KBRD 091553Z AUTO 34016G28KT 10SM SCT031 BKN040 OVC050 01/M08 A2990 RMK AO2 PK WND 33032/1518 SLP139 T00061078
KBRD 091453Z AUTO 33022G32KT 8SM OVC034 00/M08 A2987 RMK AO2 PK WND 33032/1451 SLP130 T00001078 53016
KBRD 091411Z AUTO 33013G20KT 10SM BKN032 00/M08 A2985 RMK AO2 T00001078
KBRD 091353Z AUTO 33015G22KT 10SM BKN029 M01/M08 A2985 RMK AO2 SLP123 T10061078
KBRD 091336Z AUTO 33012G22KT 10SM BKN026 BKN031 M01/M07 A2985 RMK AO2 T10061067 $
KBRD 091253Z AUTO 32014G21KT 10SM BKN100 M01/M07 A2983 RMK AO2 SLP115 T10111072 $
KBRD 091153Z AUTO 30008G16KT 10SM OVC110 M01/M07 A2982 RMK AO2 SLP111 60000 T10111072 10011 21011 53008 $
KBRD 091053Z AUTO 29009KT 10SM CLR M01/M07 A2980 RMK AO2 SLP103 T10111067 $
KBRD 090953Z AUTO 29010KT 10SM CLR M01/M06 A2979 RMK AO2 SLP099 T10061056 $
KBRD 090853Z AUTO 28009KT 10SM CLR 00/M05 A2979 RMK AO2 SLP100 60000 T00001050 58010 $
KBRD 090753Z AUTO 29006KT 10SM CLR M01/M03 A2980 RMK AO2 SNE05 SLP102 P0000 T10061033 $